createdAt,value
2023-03-29T00:02:14.882Z,97854.50
2023-03-29T00:04:42.123Z,97862.84
2023-03-29T00:07:09.466Z,97858.38
2023-03-29T00:09:36.597Z,97856.41
2023-03-29T00:12:03.674Z,97865.16
2023-03-29T00:14:31.357Z,97861.47
2023-03-29T00:16:59.218Z,97859.47
2023-03-29T00:19:26.833Z,97860.75
2023-03-29T00:21:53.907Z,97863.47
2023-03-29T00:24:24.024Z,97863.69
2023-03-29T00:26:51.229Z,97865.34
2023-03-29T00:29:18.262Z,97869.16
2023-03-29T00:31:51.530Z,97866.31
2023-03-29T00:34:18.561Z,97868.75
2023-03-29T00:36:45.756Z,97873.16
2023-03-29T00:39:12.805Z,97872.50
2023-03-29T00:41:39.781Z,97876.09
2023-03-29T00:44:06.790Z,97876.38
2023-03-29T00:46:35.226Z,97868.28
2023-03-29T00:49:09.503Z,97868.66
2023-03-29T00:51:39.535Z,97870.66
2023-03-29T00:54:14.964Z,97877.84
2023-03-29T00:56:46.363Z,97868.97
2023-03-29T00:59:19.383Z,97882.72
2023-03-29T01:01:54.778Z,97889.00
2023-03-29T01:04:53.275Z,97884.97
2023-03-29T01:07:32.079Z,97891.34
2023-03-29T01:10:04.479Z,97891.06
2023-03-29T01:12:37.977Z,97885.41
2023-03-29T01:15:14.064Z,97894.38
2023-03-29T01:17:50.510Z,97895.22
2023-03-29T01:20:27.073Z,97891.88
2023-03-29T01:22:56.545Z,97896.47
2023-03-29T01:25:32.914Z,97889.06
2023-03-29T01:28:12.903Z,97892.47
2023-03-29T01:30:43.842Z,97900.13
2023-03-29T01:33:21.346Z,97899.97
2023-03-29T01:36:01.724Z,97893.41
2023-03-29T01:38:36.566Z,97886.88
2023-03-29T01:41:04.344Z,97892.22
2023-03-29T01:43:40.825Z,97911.03
2023-03-29T01:46:19.268Z,97903.63
2023-03-29T01:48:57.363Z,97905.28
2023-03-29T01:51:38.922Z,97899.38
2023-03-29T01:54:06.091Z,97896.66
2023-03-29T01:56:37.750Z,97900.13
2023-03-29T01:59:11.419Z,97902.97
2023-03-29T02:01:49.443Z,97897.81
2023-03-29T02:04:32.645Z,97902.88
2023-03-29T02:07:02.217Z,97901.97
2023-03-29T02:09:32.156Z,97900.72
2023-03-29T02:12:02.274Z,97905.94
2023-03-29T02:14:33.353Z,97905.19
2023-03-29T02:17:19.824Z,97907.94
2023-03-29T02:19:53.480Z,97899.69
2023-03-29T02:22:27.802Z,97911.84
2023-03-29T02:24:59.417Z,97916.84
2023-03-29T02:27:29.696Z,97916.19
2023-03-29T02:29:58.559Z,97927.16
2023-03-29T02:32:35.754Z,97929.84
2023-03-29T02:35:13.226Z,97929.94
2023-03-29T02:37:44.432Z,97929.16
2023-03-29T02:40:14.612Z,97933.56
2023-03-29T02:42:44.860Z,97927.34
2023-03-29T02:45:16.443Z,97934.50
2023-03-29T02:47:49.814Z,97931.41
2023-03-29T02:50:17.528Z,97940.22
2023-03-29T02:52:56.243Z,97936.88
2023-03-29T02:55:26.500Z,97933.69
2023-03-29T02:57:53.479Z,97947.84
2023-03-29T03:00:23.467Z,97940.84
2023-03-29T03:02:51.954Z,97948.59
2023-03-29T03:05:19.595Z,97964.06
2023-03-29T03:07:47.220Z,97975.97
2023-03-29T03:10:14.497Z,97969.16
2023-03-29T03:12:41.625Z,97973.72
2023-03-29T03:15:09.237Z,97981.53
2023-03-29T03:17:40.359Z,97979.09
2023-03-29T03:20:14.935Z,97990.19
2023-03-29T03:22:49.125Z,97992.69
2023-03-29T03:25:19.704Z,97990.28
2023-03-29T03:27:49.993Z,97993.84
2023-03-29T03:30:20.961Z,97986.53
2023-03-29T03:33:24.217Z,97983.22
2023-03-29T03:36:11.334Z,97992.78
2023-03-29T03:38:38.994Z,97989.38
2023-03-29T03:41:09.623Z,97991.63
2023-03-29T03:43:36.818Z,97995.06
2023-03-29T03:46:04.117Z,97995.66
2023-03-29T03:48:31.789Z,97991.56
2023-03-29T03:51:06.118Z,97992.63
2023-03-29T03:53:35.355Z,97992.63
2023-03-29T03:56:14.862Z,97986.63
2023-03-29T03:59:11.119Z,97990.81
2023-03-29T04:01:58.744Z,97989.41
2023-03-29T04:04:27.066Z,97986.00
2023-03-29T04:07:17.961Z,97997.25
2023-03-29T04:10:04.866Z,97998.06
2023-03-29T04:12:46.719Z,98000.56
2023-03-29T04:15:13.841Z,98001.66
2023-03-29T04:17:48.070Z,97995.50
2023-03-29T04:20:27.450Z,98008.31
2023-03-29T04:22:54.797Z,98009.22
2023-03-29T04:25:22.471Z,98010.84
2023-03-29T04:27:50.630Z,98013.34
2023-03-29T04:30:33.681Z,98025.25
2023-03-29T04:33:11.421Z,98018.41
2023-03-29T04:35:41.706Z,98027.97
2023-03-29T04:38:13.255Z,98028.06
2023-03-29T04:40:42.230Z,98028.59
2023-03-29T04:43:16.771Z,98039.38
2023-03-29T04:45:55.295Z,98037.47
2023-03-29T04:48:40.967Z,98039.16
2023-03-29T04:51:09.021Z,98049.56
2023-03-29T04:53:36.852Z,98051.97
2023-03-29T04:56:04.214Z,98049.16
2023-03-29T04:58:51.308Z,98056.81
2023-03-29T05:01:18.653Z,98051.44
2023-03-29T05:03:53.410Z,98060.81
2023-03-29T05:06:29.268Z,98067.00
2023-03-29T05:08:56.948Z,98062.28
2023-03-29T05:11:31.824Z,98063.50
2023-03-29T05:14:02.634Z,98068.66
2023-03-29T05:16:33.009Z,98065.53
2023-03-29T05:19:01.164Z,98069.41
2023-03-29T05:21:28.732Z,98073.91
2023-03-29T05:23:59.011Z,98065.63
2023-03-29T05:26:45.068Z,98077.41
2023-03-29T05:29:13.083Z,98088.41
2023-03-29T05:31:42.101Z,98089.50
2023-03-29T05:34:09.132Z,98100.59
2023-03-29T05:36:43.013Z,98093.75
2023-03-29T05:39:11.013Z,98101.31
2023-03-29T05:41:41.728Z,98102.72
2023-03-29T05:44:30.817Z,98101.28
2023-03-29T05:48:17.096Z,98098.81
2023-03-29T05:50:48.649Z,98106.97
2023-03-29T05:53:17.926Z,98104.19
2023-03-29T05:55:45.503Z,98104.91
2023-03-29T05:58:18.227Z,98103.88
2023-03-29T06:00:45.846Z,98105.03
2023-03-29T06:03:28.613Z,98103.97
2023-03-29T06:06:02.528Z,98105.06
2023-03-29T06:08:32.011Z,98113.47
2023-03-29T06:11:22.403Z,98119.22
2023-03-29T06:14:13.820Z,98118.84
2023-03-29T06:16:47.215Z,98128.91
2023-03-29T06:19:15.642Z,98136.00
2023-03-29T06:21:42.672Z,98131.66
2023-03-29T06:24:13.650Z,98137.03
2023-03-29T06:26:47.189Z,98137.78
2023-03-29T06:29:14.945Z,98130.22
2023-03-29T06:31:43.294Z,98136.72
2023-03-29T06:34:24.241Z,98145.53
2023-03-29T06:37:06.823Z,98138.84
2023-03-29T06:39:34.132Z,98131.31
2023-03-29T06:42:21.783Z,98140.09
2023-03-29T06:45:09.614Z,98146.38
2023-03-29T06:47:39.808Z,98145.53
2023-03-29T06:50:09.065Z,98145.97
2023-03-29T06:52:54.535Z,98151.41
2023-03-29T06:55:23.551Z,98149.25
2023-03-29T06:57:52.867Z,98149.00
2023-03-29T07:00:28.302Z,98159.41
2023-03-29T07:03:23.653Z,98155.41
2023-03-29T07:06:01.839Z,98160.72
2023-03-29T07:08:35.300Z,98164.16
2023-03-29T07:11:07.294Z,98177.31
2023-03-29T07:13:54.356Z,98182.44
2023-03-29T07:16:21.995Z,98181.41
2023-03-29T07:18:54.497Z,98185.22
2023-03-29T07:21:44.546Z,98192.22
2023-03-29T07:24:11.785Z,98193.75
2023-03-29T07:26:46.333Z,98182.38
2023-03-29T07:29:19.747Z,98183.88
2023-03-29T07:31:46.998Z,98179.53
2023-03-29T07:34:37.120Z,98184.22
2023-03-29T07:37:07.315Z,98192.47
2023-03-29T07:39:35.532Z,98195.34
2023-03-29T07:42:32.063Z,98194.81
2023-03-29T07:45:00.164Z,98191.78
2023-03-29T07:47:34.043Z,98192.06
2023-03-29T07:50:02.837Z,98193.91
2023-03-29T07:52:30.499Z,98196.81
2023-03-29T07:54:58.803Z,98194.13
2023-03-29T07:57:44.678Z,98194.25
2023-03-29T08:00:16.869Z,98195.78
2023-03-29T08:02:55.102Z,98205.41
2023-03-29T08:05:37.829Z,98201.19
2023-03-29T08:08:11.549Z,98195.94
2023-03-29T08:11:06.496Z,98198.47
2023-03-29T08:13:40.025Z,98192.91
2023-03-29T08:16:42.415Z,98197.63
2023-03-29T08:19:14.782Z,98201.63
2023-03-29T08:21:54.484Z,98198.09
2023-03-29T08:24:24.672Z,98202.72
2023-03-29T08:26:56.941Z,98201.06
2023-03-29T08:29:25.161Z,98187.69
2023-03-29T08:31:52.918Z,98195.28
2023-03-29T08:34:20.214Z,98192.22
2023-03-29T08:37:05.847Z,98189.63
2023-03-29T08:40:47.559Z,98184.56
2023-03-29T08:43:17.013Z,98186.97
2023-03-29T08:46:37.636Z,98180.69
2023-03-29T08:49:18.866Z,98182.16
2023-03-29T08:51:49.952Z,98181.78
2023-03-29T08:54:25.545Z,98177.63
2023-03-29T08:57:19.444Z,98180.41
2023-03-29T08:59:55.243Z,98189.81
2023-03-29T09:02:27.325Z,98184.31
2023-03-29T09:05:19.097Z,98191.66
2023-03-29T09:08:25.143Z,98188.19
2023-03-29T09:11:18.298Z,98190.22
2023-03-29T09:14:10.535Z,98189.56
2023-03-29T09:16:48.778Z,98199.59
2023-03-29T09:19:43.400Z,98197.53
2023-03-29T09:22:36.114Z,98212.94
2023-03-29T09:25:29.801Z,98204.81
2023-03-29T09:28:02.678Z,98213.75
2023-03-29T09:30:55.289Z,98207.84
2023-03-29T09:33:37.260Z,98210.19
2023-03-29T09:36:17.981Z,98209.94
2023-03-29T09:38:51.227Z,98210.88
2023-03-29T09:41:32.311Z,98213.09
2023-03-29T09:44:12.758Z,98214.78
2023-03-29T10:17:32.863Z,98197.25
2023-03-29T10:20:04.155Z,98200.88
2023-03-29T10:22:38.073Z,98202.72
2023-03-29T10:25:12.865Z,98196.50
2023-03-29T10:27:42.741Z,98196.97
2023-03-29T10:30:13.229Z,98196.19
2023-03-29T10:32:41.610Z,98187.69
2023-03-29T10:35:13.191Z,98191.53
2023-03-29T10:37:43.662Z,98192.53
2023-03-29T10:40:31.629Z,98189.06
2023-03-29T10:43:13.062Z,98194.50
2023-03-29T10:45:42.535Z,98195.22
2023-03-29T10:48:14.863Z,98184.81
2023-03-29T10:50:42.997Z,98187.22
2023-03-29T10:53:21.711Z,98179.16
2023-03-29T10:56:29.590Z,98169.84
2023-03-29T10:59:02.311Z,98169.06
2023-03-29T11:01:44.666Z,98181.72
2023-03-29T11:05:08.580Z,98170.94
2023-03-29T11:07:47.735Z,98179.47
2023-03-29T11:10:40.759Z,98165.84
2023-03-29T11:13:46.579Z,98166.31
2023-03-29T11:16:25.770Z,98167.84
2023-03-29T11:19:07.100Z,98165.78
2023-03-29T11:21:51.260Z,98163.44
2023-03-29T11:24:27.706Z,98163.72
2023-03-29T11:27:23.271Z,98154.66
2023-03-29T11:30:13.414Z,98158.31
2023-03-29T11:33:04.244Z,98160.13
2023-03-29T11:35:34.464Z,98166.53
2023-03-29T11:38:10.516Z,98161.22
2023-03-29T11:40:50.129Z,98163.16
2023-03-29T11:43:23.258Z,98157.38
2023-03-29T11:45:56.082Z,98154.44
2023-03-29T11:48:30.008Z,98152.84
2023-03-29T11:51:26.862Z,98142.56
2023-03-29T11:53:53.983Z,98147.44
2023-03-29T11:56:33.577Z,98151.66
2023-03-29T11:59:27.350Z,98163.38
2023-03-29T12:02:36.024Z,98164.63
2023-03-29T12:05:13.858Z,98155.44
2023-03-29T12:07:48.939Z,98155.28
2023-03-29T12:10:44.260Z,98162.47
2023-03-29T12:13:24.723Z,98187.97
2023-03-29T12:16:02.596Z,98194.78
2023-03-29T12:18:42.674Z,98193.50
2023-03-29T12:21:17.236Z,98198.56
2023-03-29T12:23:46.034Z,98181.13
2023-03-29T12:26:28.014Z,98196.09
2023-03-29T12:29:17.949Z,98198.75
2023-03-29T12:32:19.706Z,98212.06
2023-03-29T12:35:34.758Z,98211.50
2023-03-29T12:38:24.260Z,98226.16
2023-03-29T12:41:21.900Z,98230.16
2023-03-29T12:44:10.709Z,98239.53
2023-03-29T12:46:55.293Z,98258.44
2023-03-29T12:49:38.262Z,98259.88
2023-03-29T12:52:34.801Z,98260.88
2023-03-29T12:55:05.073Z,98259.53
2023-03-29T12:57:38.091Z,98265.19
2023-03-29T13:00:22.586Z,98270.88
2023-03-29T13:03:19.921Z,98273.25
2023-03-29T13:05:47.259Z,98267.41
2023-03-29T13:08:26.552Z,98266.31
2023-03-29T13:10:56.229Z,98268.69
2023-03-29T13:13:34.456Z,98272.03
2023-03-29T13:16:17.135Z,98261.59
2023-03-29T13:19:02.034Z,98254.13
2023-03-29T13:21:29.082Z,98252.69
2023-03-29T13:24:21.006Z,98250.91
2023-03-29T13:27:18.291Z,98253.91
2023-03-29T13:30:23.577Z,98244.75
2023-03-29T13:33:42.683Z,98246.84
2023-03-29T13:36:49.577Z,98246.53
2023-03-29T13:39:22.736Z,98254.81
2023-03-29T13:41:53.234Z,98255.97
2023-03-29T13:44:23.128Z,98260.31
2023-03-29T13:47:03.095Z,98256.56
2023-03-29T13:49:34.049Z,98263.63
2023-03-29T13:52:20.284Z,98262.03
2023-03-29T13:55:14.921Z,98267.38
2023-03-29T13:57:59.859Z,98267.69
2023-03-29T14:00:49.758Z,98275.19
2023-03-29T14:03:20.568Z,98282.34
2023-03-29T14:05:57.863Z,98291.63
2023-03-29T14:08:32.876Z,98288.56
2023-03-29T14:11:04.857Z,98293.16
2023-03-29T14:13:32.087Z,98284.84
2023-03-29T14:16:07.024Z,98282.75
2023-03-29T14:18:39.770Z,98274.97
2023-03-29T14:21:08.548Z,98281.13
2023-03-29T14:23:38.121Z,98279.03
2023-03-29T14:26:14.523Z,98280.84
2023-03-29T14:29:01.938Z,98290.13
2023-03-29T14:31:35.679Z,98281.31
2023-03-29T14:34:06.144Z,98279.06
2023-03-29T14:36:34.283Z,98290.56
2023-03-29T14:39:05.760Z,98301.34
2023-03-29T14:41:36.953Z,98307.03
2023-03-29T14:44:06.952Z,98306.69
2023-03-29T14:46:35.241Z,98318.81
2023-03-29T14:49:02.787Z,98320.22
2023-03-29T14:51:31.289Z,98312.94
2023-03-29T14:54:00.517Z,98307.34
2023-03-29T14:56:28.268Z,98308.28
2023-03-29T14:58:57.031Z,98296.25
2023-03-29T15:01:26.887Z,98288.22
2023-03-29T15:03:55.101Z,98290.50
2023-03-29T15:06:25.150Z,98292.47
2023-03-29T15:09:04.188Z,98288.88
2023-03-29T15:11:32.333Z,98295.59
2023-03-29T15:14:06.739Z,98292.00
2023-03-29T15:16:36.963Z,98295.88
2023-03-29T15:19:04.560Z,98297.03
2023-03-29T15:21:34.410Z,98299.63
2023-03-29T15:24:04.317Z,98301.63
2023-03-29T15:26:35.139Z,98297.91
2023-03-29T15:29:12.748Z,98307.94
2023-03-29T15:31:41.954Z,98314.88
2023-03-29T15:34:14.544Z,98314.97
2023-03-29T15:36:45.344Z,98317.34
2023-03-29T15:39:15.426Z,98319.91
2023-03-29T15:41:43.991Z,98325.00
2023-03-29T15:44:11.502Z,98311.81
2023-03-29T15:46:38.800Z,98326.41
2023-03-29T15:49:06.088Z,98335.03
2023-03-29T15:51:33.260Z,98334.53
2023-03-29T15:54:00.443Z,98332.59
2023-03-29T15:56:27.742Z,98340.59
2023-03-29T15:58:54.984Z,98344.53
2023-03-29T16:01:34.612Z,98343.91
2023-03-29T16:04:04.410Z,98346.00
2023-03-29T16:06:32.342Z,98358.34
2023-03-29T16:08:59.557Z,98361.47
2023-03-29T16:11:28.621Z,98366.03
2023-03-29T16:13:56.407Z,98373.19
2023-03-29T16:16:24.623Z,98370.47
2023-03-29T16:18:51.940Z,98376.06
2023-03-29T16:21:22.312Z,98368.72
2023-03-29T16:23:49.966Z,98374.19
2023-03-29T16:26:17.438Z,98374.19
2023-03-29T16:28:44.611Z,98368.69
2023-03-29T16:31:13.562Z,98375.81
2023-03-29T16:33:41.703Z,98387.75
2023-03-29T16:36:09.478Z,98381.38
2023-03-29T16:38:37.263Z,98382.41
2023-03-29T16:41:04.598Z,98384.91
2023-03-29T16:43:31.888Z,98395.97
2023-03-29T16:45:59.076Z,98391.16
2023-03-29T16:48:27.228Z,98394.88
2023-03-29T16:50:54.521Z,98394.19
2023-03-29T16:53:22.458Z,98399.78
2023-03-29T16:55:49.961Z,98401.50
2023-03-29T16:58:17.236Z,98404.63
2023-03-29T17:00:47.899Z,98409.28
2023-03-29T17:03:16.307Z,98407.66
2023-03-29T17:06:02.981Z,98418.75
2023-03-29T17:08:30.516Z,98426.75
2023-03-29T17:10:57.842Z,98424.19
2023-03-29T17:13:26.078Z,98427.88
2023-03-29T17:15:55.757Z,98431.13
2023-03-29T17:18:25.752Z,98427.03
2023-03-29T17:20:57.026Z,98425.22
2023-03-29T17:23:25.065Z,98434.25
2023-03-29T17:25:54.848Z,98432.56
2023-03-29T17:28:22.836Z,98427.41
2023-03-29T17:30:50.257Z,98436.75
2023-03-29T17:33:18.639Z,98438.88
2023-03-29T17:35:48.642Z,98452.44
2023-03-29T17:38:15.814Z,98456.03
2023-03-29T17:40:43.031Z,98456.28
2023-03-29T17:43:10.129Z,98449.31
2023-03-29T17:45:37.229Z,98450.81
2023-03-29T17:48:06.369Z,98450.81
2023-03-29T17:50:34.513Z,98458.69
2023-03-29T17:53:01.884Z,98462.03
2023-03-29T17:55:28.946Z,98467.09
2023-03-29T17:57:56.508Z,98467.31
2023-03-29T18:00:23.692Z,98470.50
2023-03-29T18:02:50.787Z,98466.50
2023-03-29T18:05:18.805Z,98464.69
2023-03-29T18:07:46.288Z,98463.59
2023-03-29T18:10:13.711Z,98463.41
2023-03-29T18:12:40.924Z,98474.09
2023-03-29T18:15:09.129Z,98474.72
2023-03-29T18:17:36.454Z,98482.66
2023-03-29T18:20:10.130Z,98478.97
2023-03-29T18:22:38.988Z,98484.88
2023-03-29T18:25:07.573Z,98486.53
2023-03-29T18:27:34.702Z,98489.00
2023-03-29T18:30:02.367Z,98484.31
2023-03-29T18:32:29.582Z,98480.34
2023-03-29T18:34:56.812Z,98494.59
2023-03-29T18:37:23.981Z,98494.19
2023-03-29T18:39:51.110Z,98494.22
2023-03-29T18:42:20.478Z,98499.34
2023-03-29T18:44:47.630Z,98502.88
2023-03-29T18:47:14.856Z,98503.63
2023-03-29T18:49:42.369Z,98504.59
2023-03-29T18:52:10.004Z,98504.59
2023-03-29T18:54:37.466Z,98511.13
2023-03-29T18:57:04.543Z,98496.47
2023-03-29T18:59:31.767Z,98491.34
2023-03-29T19:01:59.015Z,98494.53
2023-03-29T19:04:27.338Z,98493.50
2023-03-29T19:06:55.794Z,98494.59
2023-03-29T19:09:23.646Z,98499.94
2023-03-29T19:11:50.805Z,98502.81
2023-03-29T19:14:23.546Z,98499.91
2023-03-29T19:16:52.345Z,98499.75
2023-03-29T19:19:20.046Z,98503.09
2023-03-29T19:21:47.518Z,98506.31
2023-03-29T19:24:14.888Z,98508.31
2023-03-29T19:26:43.723Z,98506.81
2023-03-29T19:29:10.916Z,98513.63
2023-03-29T19:31:38.305Z,98517.56
2023-03-29T19:34:07.164Z,98513.53
2023-03-29T19:36:34.451Z,98511.97
2023-03-29T19:39:01.876Z,98507.72
2023-03-29T19:41:28.982Z,98518.94
2023-03-29T19:43:56.128Z,98520.34
2023-03-29T19:46:23.674Z,98526.19
2023-03-29T19:48:55.686Z,98522.69
2023-03-29T19:51:23.812Z,98533.41
2023-03-29T19:53:50.987Z,98532.25
2023-03-29T19:56:18.072Z,98542.88
2023-03-29T19:58:46.911Z,98541.41
2023-03-29T20:01:15.772Z,98538.41
2023-03-29T20:03:43.762Z,98536.84
2023-03-29T20:06:11.128Z,98539.53
2023-03-29T20:08:39.041Z,98537.97
2023-03-29T20:11:10.379Z,98540.81
2023-03-29T20:13:46.663Z,98535.91
2023-03-29T20:16:16.387Z,98527.66
2023-03-29T20:18:47.711Z,98536.97
2023-03-29T20:21:16.938Z,98537.69
2023-03-29T20:23:44.590Z,98536.88
2023-03-29T20:26:12.199Z,98537.97
2023-03-29T20:28:39.704Z,98533.88
2023-03-29T20:31:10.871Z,98525.66
2023-03-29T20:33:39.171Z,98530.47
2023-03-29T20:36:06.861Z,98514.38
2023-03-29T20:38:35.104Z,98522.09
2023-03-29T20:41:04.444Z,98524.00
2023-03-29T20:43:37.751Z,98527.44
2023-03-29T20:46:14.556Z,98521.50
2023-03-29T20:48:54.414Z,98523.22
2023-03-29T20:51:28.193Z,98524.91
2023-03-29T20:54:02.544Z,98524.91
2023-03-29T20:56:31.508Z,98520.28
2023-03-29T20:58:59.031Z,98523.91
2023-03-29T21:01:28.038Z,98521.44
2023-03-29T21:03:55.809Z,98520.44
2023-03-29T21:06:24.493Z,98520.34
2023-03-29T21:08:52.723Z,98525.09
2023-03-29T21:11:21.099Z,98520.88
2023-03-29T21:13:48.398Z,98525.72
2023-03-29T21:16:15.890Z,98525.50
2023-03-29T21:18:43.632Z,98523.91
2023-03-29T21:21:11.958Z,98528.78
2023-03-29T21:23:39.114Z,98528.00
2023-03-29T21:26:09.609Z,98534.06
2023-03-29T21:28:37.755Z,98535.19
2023-03-29T21:31:06.737Z,98537.00
2023-03-29T21:33:35.249Z,98531.03
2023-03-29T21:36:02.819Z,98530.13
2023-03-29T21:38:30.032Z,98531.19
2023-03-29T21:40:58.314Z,98535.09
2023-03-29T21:43:25.604Z,98541.41
2023-03-29T21:45:52.707Z,98535.28
2023-03-29T21:48:19.907Z,98550.50
2023-03-29T21:50:52.838Z,98554.38
2023-03-29T21:53:20.560Z,98551.09
2023-03-29T21:55:51.566Z,98542.16
2023-03-29T21:58:19.471Z,98550.97
2023-03-29T22:00:47.723Z,98545.47
2023-03-29T22:03:16.057Z,98541.84
2023-03-29T22:05:44.460Z,98545.63
2023-03-29T22:08:11.888Z,98545.31
2023-03-29T22:10:41.526Z,98552.97
2023-03-29T22:13:09.404Z,98543.75
2023-03-29T22:15:36.541Z,98546.66
2023-03-29T22:18:04.338Z,98549.44
2023-03-29T22:20:35.786Z,98554.16
2023-03-29T22:23:03.441Z,98543.22
2023-03-29T22:25:30.592Z,98546.78
2023-03-29T22:27:58.396Z,98543.56
2023-03-29T22:30:25.460Z,98542.56
2023-03-29T22:32:52.769Z,98538.53
2023-03-29T22:35:19.893Z,98536.78
2023-03-29T22:37:46.998Z,98533.09
2023-03-29T22:40:14.367Z,98535.44
2023-03-29T22:42:41.604Z,98528.44
2023-03-29T22:45:09.450Z,98526.91
2023-03-29T22:47:36.738Z,98540.47
2023-03-29T22:50:04.111Z,98532.47
2023-03-29T22:52:31.559Z,98541.66
2023-03-29T22:54:58.689Z,98541.34
2023-03-29T22:57:25.886Z,98542.41
2023-03-29T22:59:53.006Z,98535.19
2023-03-29T23:02:20.344Z,98540.72
2023-03-29T23:04:47.774Z,98541.50
2023-03-29T23:07:14.973Z,98541.44
2023-03-29T23:09:42.435Z,98537.19
2023-03-29T23:12:09.865Z,98540.34
2023-03-29T23:14:37.638Z,98537.84
2023-03-29T23:17:04.865Z,98537.09
2023-03-29T23:19:32.013Z,98536.88
2023-03-29T23:21:59.138Z,98526.78
2023-03-29T23:24:26.207Z,98526.09
2023-03-29T23:26:53.321Z,98519.81
2023-03-29T23:29:20.384Z,98515.50
2023-03-29T23:31:47.779Z,98522.50
2023-03-29T23:34:15.094Z,98517.78
2023-03-29T23:36:42.226Z,98523.16
2023-03-29T23:39:10.074Z,98528.38
2023-03-29T23:41:40.234Z,98522.56
2023-03-29T23:44:07.428Z,98516.50
2023-03-29T23:46:34.716Z,98512.38
2023-03-29T23:49:01.872Z,98519.75
2023-03-29T23:51:29.044Z,98519.97
2023-03-29T23:53:57.153Z,98522.69
2023-03-29T23:56:24.473Z,98523.16
2023-03-29T23:58:51.940Z,98519.44
